• Join FlightAware (Why Join?)
  • Login
  • US Flag 
07:54AM EST


 

Airport Tracker/Info


-or-


 

Live Flight TrackerFlight Track Log ✈ KAP46 ✈ 06-Jul-2013 ✈ KALB - KMSS

Flight Track Log - Related Links

Times and Time Zones

All times are in EDT time to prevent confusion due to time zone crossing. See the KAP46 flight status page for this flight to view local times or setup timezone preferences in your user account.

Time Position Orientation Groundspeed Altitude Reporting Facility
EDT Latitude Longitude Course Direction KTS MPH feet Rate Location/Type
10:40AM 42.7511 -73.7747 360° North 123 142 900  Level Boston Center
10:40AM 42.7511 -73.7747 73° East 123 142 900 800 Level Boston Center
10:41AM 42.7597 -73.7353 73° East 121 139 1,700 800 Climbing Boston Center
10:41AM 42.7597 -73.7353 73° East 121 139 1,700 590 Level Boston Center
10:42AM 42.7914 -73.7133 27° Northeast 119 137 2,300 590 Climbing Boston Center
10:42AM 42.7914 -73.7133 27° Northeast 119 137 2,300 689 Level Boston Center
10:43AM 42.8206 -73.7053 11° North 113 130 3,000 689 Climbing Boston Center
10:43AM 42.8206 -73.7053 11° North 113 130 3,000 667 Level Boston Center
10:43AM 42.8475 -73.7144 346° North 114 131 3,600 667 Climbing Boston Center
10:43AM 42.8475 -73.7144 346° North 114 131 3,600 590 Level Boston Center
10:44AM 42.8789 -73.7236 348° North 113 130 4,200 590 Climbing Boston Center
10:44AM 42.8789 -73.7236 348° North 113 130 4,200 740 Level Boston Center
10:46AM 42.9139 -73.7414 340° North 111 128 5,100 740 Climbing Boston Center
10:46AM 42.9139 -73.7414 340° North 111 128 5,100 627 Level Boston Center
10:47AM 42.9472 -73.7561 342° North 114 131 5,800 627 Climbing Boston Center
10:47AM 42.9472 -73.7561 342° North 114 131 5,800 636 Level Boston Center
10:48AM 42.9825 -73.7739 340° North 124 143 6,500 636 Climbing Boston Center
10:48AM 42.9825 -73.7739 340° North 124 143 6,500 590 Level Boston Center
10:49AM 43.0133 -73.7889 340° North 122 140 7,100 590 Climbing Boston Center
10:49AM 43.0133 -73.7889 340° North 122 140 7,100 612 Level Boston Center
10:50AM 43.0383 -73.8064 333° Northwest 122 140 7,600 612 Climbing Boston Center
10:50AM 43.0383 -73.8064 333° Northwest 122 140 7,600 556 Level Boston Center
10:51AM 43.0694 -73.8242 337° Northwest 122 140 8,100 556 Climbing Boston Center
10:51AM 43.0694 -73.8242 337° Northwest 122 140 8,100  Level Boston Center
10:52AM 43.1067 -73.8450 338° Northwest 150 173 8,100  Level Boston Center
10:52AM 43.1067 -73.8450 338° Northwest 150 173 8,100 -200 Level Boston Center
10:53AM 43.1500 -73.8686 338° Northwest 150 173 7,900 -200 Descending Boston Center
10:53AM 43.1500 -73.8686 338° Northwest 150 173 7,900 100 Level Boston Center
10:54AM 43.1853 -73.8867 340° North 150 173 8,000 100 Climbing Boston Center
10:54AM 43.1853 -73.8867 340° North 150 173 8,000  Level Boston Center
10:55AM 43.2308 -73.9075 342° North 150 173 8,000  Level Boston Center
10:55AM 43.2308 -73.9075 342° North 150 173 8,000 -100 Level Boston Center
10:56AM 43.2661 -73.9283 337° Northwest 150 173 7,900 -100 Descending Boston Center
10:56AM 43.2661 -73.9283 337° Northwest 150 173 7,900 100 Level Boston Center
10:57AM 43.3075 -73.9522 337° Northwest 150 173 8,000 100 Climbing Boston Center
10:57AM 43.3075 -73.9522 337° Northwest 150 173 8,000 -100 Level Boston Center
10:58AM 43.3425 -73.9703 339° North 150 173 7,900 -100 Descending Boston Center
10:58AM 43.3425 -73.9703 339° North 150 173 7,900  Level Boston Center
10:59AM 43.3839 -73.9886 342° North 150 173 7,900  Level Boston Center
10:59AM 43.3839 -73.9886 342° North 150 173 7,900  Level Boston Center
11:00AM 43.4192 -74.0064 340° North 150 173 7,900  Level Boston Center
11:00AM 43.4192 -74.0064 340° North 150 173 7,900  Level Boston Center
11:01AM 43.4583 -74.0303 336° Northwest 150 173 7,900  Level Boston Center
11:01AM 43.4583 -74.0303 336° Northwest 150 173 7,900  Level Boston Center
11:02AM 43.4978 -74.0514 339° North 150 173 7,900  Level Boston Center
11:02AM 43.4978 -74.0514 339° North 150 173 7,900  Level Boston Center
11:03AM 43.5350 -74.0725 338° Northwest 150 173 7,900  Level Boston Center
11:03AM 43.5350 -74.0725 338° Northwest 150 173 7,900  Level Boston Center
11:04AM 43.5744 -74.0908 341° North 150 173 7,900  Level Boston Center
11:04AM 43.5744 -74.0908 341° North 150 173 7,900 100 Level Boston Center
11:05AM 43.6094 -74.1119 336° Northwest 145 167 8,000 100 Climbing Boston Center
11:05AM 43.6094 -74.1119 336° Northwest 145 167 8,000  Level Boston Center
11:06AM 43.6486 -74.1331 339° North 145 167 8,000  Level Boston Center
11:06AM 43.6486 -74.1331 339° North 145 167 8,000  Level Boston Center
11:07AM 43.6900 -74.1542 340° North 145 167 8,000  Level Boston Center
11:07AM 43.6900 -74.1542 340° North 145 167 8,000  Level Boston Center
11:08AM 43.7253 -74.1725 339° North 145 167 8,000  Level Boston Center
11:08AM 43.7253 -74.1725 339° North 145 167 8,000  Level Boston Center
11:09AM 43.7542 -74.1906 336° Northwest 145 167 8,000  Level Boston Center
11:09AM 43.7542 -74.1906 336° Northwest 145 167 8,000  Level Boston Center
11:10AM 43.7997 -74.2150 339° North 145 167 8,000  Level Boston Center
11:10AM 43.7997 -74.2150 339° North 145 167 8,000  Level Boston Center
11:11AM 43.8408 -74.2364 339° North 150 173 8,000  Level Boston Center
11:11AM 43.8408 -74.2364 339° North 150 173 8,000  Level Boston Center
11:12AM 43.8803 -74.2575 339° North 150 173 8,000  Level Boston Center
11:12AM 43.8803 -74.2575 339° North 150 173 8,000 100 Level Boston Center
11:13AM 43.9194 -74.2789 339° North 150 173 8,100 100 Climbing Boston Center
11:13AM 43.9194 -74.2789 339° North 150 173 8,100 -100 Level Boston Center
11:14AM 43.9567 -74.2975 340° North 150 173 8,000 -100 Descending Boston Center
11:14AM 43.9567 -74.2975 340° North 150 173 8,000  Level Boston Center
11:15AM 43.9958 -74.3189 339° North 150 173 8,000  Level Boston Center
11:15AM 43.9958 -74.3189 339° North 150 173 8,000  Level Boston Center
11:16AM 44.0331 -74.3403 338° Northwest 144 166 8,000  Level Boston Center
11:16AM 44.0331 -74.3403 338° Northwest 144 166 8,000  Level Boston Center
11:17AM 44.0703 -74.3617 338° Northwest 144 166 8,000  Level Boston Center
11:17AM 44.0703 -74.3617 338° Northwest 144 166 8,000  Level Boston Center
11:18AM 44.1053 -74.3800 339° North 144 166 8,000  Level Boston Center
11:18AM 44.1053 -74.3800 339° North 144 166 8,000  Level Boston Center
11:19AM 44.1486 -74.4017 340° North 149 171 8,000  Level Boston Center
11:19AM 44.1486 -74.4017 340° North 149 171 8,000  Level Boston Center
11:20AM 44.1881 -74.4233 339° North 149 171 8,000  Level Boston Center
11:26AM 44.4108 -74.5442 339° North 149 171 8,000 -71 Level Boston Center
11:27AM 44.4564 -74.5661 341° North 149 171 7,500 -450 Descending Boston Center
11:28AM 44.4997 -74.5853 342° North 159 183 7,100 -450 Descending Boston Center
11:29AM 44.5408 -74.6128 335° Northwest 159 183 6,600 -500 Descending Boston Center
11:30AM 44.5800 -74.6436 331° Northwest 159 183 6,100 -500 Descending Boston Center
11:31AM 44.6211 -74.6711 335° Northwest 159 183 5,600 -500 Descending Boston Center
11:32AM 44.6667 -74.6875 346° North 159 183 5,100 -300 Descending Boston Center
11:33AM 44.7078 -74.7125 337° Northwest 159 183 5,000 -300 Descending Boston Center
11:34AM 44.7489 -74.7375 337° Northwest 159 183 4,500 -500 Descending Boston Center